createdAt,value
2022-10-23T00:01:47.460Z,100726.71
2022-10-23T00:04:21.958Z,100728.43
2022-10-23T00:06:50.493Z,100722.47
2022-10-23T00:09:22.636Z,100720.73
2022-10-23T00:11:52.267Z,100719.73
2022-10-23T00:14:24.181Z,100722.22
2022-10-23T00:16:52.101Z,100721.40
2022-10-23T00:19:19.873Z,100725.54
2022-10-23T00:21:47.566Z,100725.23
2022-10-23T00:24:15.317Z,100721.87
2022-10-23T00:26:42.953Z,100722.38
2022-10-23T00:29:11.173Z,100720.98
2022-10-23T00:31:39.170Z,100717.13
2022-10-23T00:34:08.557Z,100707.80
2022-10-23T00:36:37.850Z,100700.94
2022-10-23T00:39:06.038Z,100695.48
2022-10-23T00:41:33.713Z,100697.95
2022-10-23T00:44:10.952Z,100697.08
2022-10-23T00:46:40.614Z,100699.04
2022-10-23T00:49:09.950Z,100690.29
2022-10-23T00:51:44.476Z,100692.89
2022-10-23T00:54:30.685Z,100695.28
2022-10-23T00:57:02.472Z,100690.89
2022-10-23T00:59:31.862Z,100697.20
2022-10-23T01:02:00.137Z,100706.43
2022-10-23T01:04:29.879Z,100710.16
2022-10-23T01:07:27.356Z,100712.65
2022-10-23T01:10:30.930Z,100714.94
2022-10-23T01:13:11.378Z,100718.52
2022-10-23T01:16:03.125Z,100718.15
2022-10-23T01:18:49.308Z,100719.02
2022-10-23T01:21:33.021Z,100715.41
2022-10-23T01:24:22.986Z,100714.58
2022-10-23T01:27:24.833Z,100715.67
2022-10-23T01:30:08.722Z,100706.95
2022-10-23T01:32:57.685Z,100710.55
2022-10-23T01:35:35.150Z,100708.65
2022-10-23T01:38:14.773Z,100708.36
2022-10-23T01:40:58.172Z,100704.48
2022-10-23T01:43:41.837Z,100702.14
2022-10-23T01:46:15.879Z,100697.27
2022-10-23T01:48:52.395Z,100704.50
2022-10-23T01:51:25.785Z,100709.95
2022-10-23T01:53:59.591Z,100715.07
2022-10-23T01:56:36.779Z,100719.02
2022-10-23T01:59:18.357Z,100719.19
2022-10-23T02:01:49.854Z,100721.77
2022-10-23T02:04:29.528Z,100723.65
2022-10-23T02:06:57.462Z,100723.19
2022-10-23T02:09:25.608Z,100725.48
2022-10-23T02:12:13.394Z,100723.44
2022-10-23T02:14:56.456Z,100721.34
2022-10-23T02:17:47.430Z,100719.98
2022-10-23T02:20:36.095Z,100724.08
2022-10-23T02:23:20.262Z,100728.28
2022-10-23T02:26:07.277Z,100732.18
2022-10-23T02:28:53.773Z,100733.17
2022-10-23T02:31:23.634Z,100736.80
2022-10-23T02:33:51.710Z,100733.27
2022-10-23T02:36:19.962Z,100741.69
2022-10-23T02:38:48.137Z,100742.91
2022-10-23T02:41:49.231Z,100745.35
2022-10-23T02:44:37.425Z,100743.26
2022-10-23T02:47:35.635Z,100744.33
2022-10-23T02:50:29.910Z,100749.85
2022-10-23T02:53:35.805Z,100746.16
2022-10-23T02:56:40.061Z,100750.85
2022-10-23T02:59:37.485Z,100753.33
2022-10-23T03:02:21.550Z,100748.31
2022-10-23T03:04:53.426Z,100745.41
2022-10-23T03:07:21.202Z,100740.90
2022-10-23T03:09:49.004Z,100745.13
2022-10-23T03:12:16.790Z,100742.27
2022-10-23T03:14:44.461Z,100745.55
2022-10-23T03:17:12.093Z,100745.31
2022-10-23T03:19:39.797Z,100743.40
2022-10-23T03:22:07.433Z,100737.80
2022-10-23T03:24:35.090Z,100741.71
2022-10-23T03:27:02.789Z,100733.64
2022-10-23T03:29:32.521Z,100730.48
2022-10-23T03:32:00.226Z,100741.69
2022-10-23T03:34:28.022Z,100740.61
2022-10-23T03:36:55.731Z,100744.66
2022-10-23T03:39:23.413Z,100745.66
2022-10-23T03:41:51.142Z,100749.91
2022-10-23T03:44:19.239Z,100754.39
2022-10-23T03:46:46.982Z,100760.18
2022-10-23T03:49:14.829Z,100761.48
2022-10-23T03:51:51.717Z,100763.48
2022-10-23T03:54:23.367Z,100768.35
2022-10-23T03:56:53.692Z,100768.83
2022-10-23T03:59:24.553Z,100775.38
2022-10-23T04:01:52.602Z,100771.16
2022-10-23T04:04:20.373Z,100754.84
2022-10-23T04:06:48.214Z,100768.27
2022-10-23T04:09:16.636Z,100769.14
2022-10-23T04:11:44.330Z,100770.26
2022-10-23T04:14:14.138Z,100766.55
2022-10-23T04:16:42.674Z,100766.92
2022-10-23T04:19:10.373Z,100765.98
2022-10-23T04:21:38.313Z,100769.98
2022-10-23T04:24:06.394Z,100766.23
2022-10-23T04:26:34.203Z,100769.73
2022-10-23T04:29:01.877Z,100774.10
2022-10-23T04:31:30.680Z,100768.60
2022-10-23T04:33:58.404Z,100771.92
2022-10-23T04:36:29.858Z,100767.98
2022-10-23T04:39:02.032Z,100761.31
2022-10-23T04:41:29.837Z,100757.71
2022-10-23T04:43:57.460Z,100752.26
2022-10-23T04:46:25.282Z,100762.98
2022-10-23T04:48:52.995Z,100768.10
2022-10-23T04:51:29.217Z,100773.48
2022-10-23T04:54:13.505Z,100770.05
2022-10-23T04:56:48.375Z,100780.93
2022-10-23T04:59:19.617Z,100780.67
2022-10-23T05:01:47.760Z,100780.70
2022-10-23T05:04:15.428Z,100779.16
2022-10-23T05:07:02.229Z,100785.14
2022-10-23T05:09:53.206Z,100788.86
2022-10-23T05:12:30.728Z,100791.58
2022-10-23T05:14:58.973Z,100793.23
2022-10-23T05:17:37.578Z,100792.57
2022-10-23T05:20:13.622Z,100792.27
2022-10-23T05:22:44.217Z,100795.22
2022-10-23T05:25:13.491Z,100798.65
2022-10-23T05:27:46.032Z,100797.13
2022-10-23T05:30:15.796Z,100796.91
2022-10-23T05:32:44.720Z,100798.38
2022-10-23T05:35:22.505Z,100792.51
2022-10-23T05:37:53.519Z,100795.38
2022-10-23T05:40:24.579Z,100794.48
2022-10-23T05:42:58.757Z,100796.97
2022-10-23T05:45:45.270Z,100796.67
2022-10-23T05:48:34.395Z,100795.92
2022-10-23T05:51:24.514Z,100802.56
2022-10-23T05:53:59.890Z,100805.02
2022-10-23T05:56:42.253Z,100807.73
2022-10-23T05:59:22.868Z,100805.09
2022-10-23T06:02:20.186Z,100808.37
2022-10-23T06:04:52.637Z,100805.36
2022-10-23T06:07:50.328Z,100804.55
2022-10-23T06:10:18.811Z,100803.55
2022-10-23T06:12:47.604Z,100802.11
2022-10-23T06:15:17.548Z,100799.59
2022-10-23T06:18:05.355Z,100800.42
2022-10-23T06:20:38.146Z,100797.45
2022-10-23T06:23:10.672Z,100798.94
2022-10-23T06:25:55.810Z,100798.08
2022-10-23T06:28:29.122Z,100800.25
2022-10-23T06:30:56.873Z,100799.79
2022-10-23T06:33:24.798Z,100798.42
2022-10-23T06:35:56.007Z,100800.49
2022-10-23T06:38:23.714Z,100800.16
2022-10-23T06:40:58.004Z,100801.67
2022-10-23T06:43:33.238Z,100798.59
2022-10-23T06:46:22.433Z,100802.64
2022-10-23T06:49:09.782Z,100800.77
2022-10-23T06:51:45.077Z,100803.46
2022-10-23T06:54:14.153Z,100803.58
2022-10-23T06:56:51.209Z,100800.98
2022-10-23T06:59:23.120Z,100805.05
2022-10-23T07:01:52.573Z,100809.90
2022-10-23T07:04:20.792Z,100805.95
2022-10-23T07:06:49.224Z,100807.16
2022-10-23T07:09:19.125Z,100811.17
2022-10-23T07:12:09.978Z,100806.09
2022-10-23T07:14:44.450Z,100807.45
2022-10-23T07:17:13.219Z,100807.28
2022-10-23T07:19:41.488Z,100804.80
2022-10-23T07:22:15.008Z,100811.34
2022-10-23T07:24:51.333Z,100815.77
2022-10-23T07:27:28.247Z,100815.69
2022-10-23T07:29:57.935Z,100813.65
2022-10-23T07:32:28.073Z,100810.73
2022-10-23T07:35:33.107Z,100818.40
2022-10-23T07:38:13.817Z,100819.48
2022-10-23T07:40:47.030Z,100822.89
2022-10-23T07:43:18.604Z,100832.98
2022-10-23T07:45:49.272Z,100833.73
2022-10-23T07:48:23.871Z,100835.13
2022-10-23T07:51:08.205Z,100834.11
2022-10-23T07:53:39.148Z,100833.04
2022-10-23T07:56:31.859Z,100825.60
2022-10-23T07:59:18.075Z,100828.40
2022-10-23T08:01:56.744Z,100832.14
2022-10-23T08:04:35.062Z,100837.58
2022-10-23T08:07:09.521Z,100839.76
2022-10-23T08:09:41.443Z,100839.31
2022-10-23T08:12:10.139Z,100839.67
2022-10-23T08:14:38.376Z,100838.20
2022-10-23T08:17:09.672Z,100850.36
2022-10-23T08:20:10.772Z,100851.92
2022-10-23T08:22:42.397Z,100853.63
2022-10-23T08:25:11.088Z,100859.67
2022-10-23T08:27:39.248Z,100864.17
2022-10-23T08:30:08.490Z,100867.04
2022-10-23T08:32:36.934Z,100869.83
2022-10-23T08:35:05.477Z,100872.73
2022-10-23T08:37:33.592Z,100868.51
2022-10-23T08:40:02.682Z,100866.94
2022-10-23T08:43:19.038Z,100870.79
2022-10-23T08:46:09.503Z,100876.05
2022-10-23T08:49:40.390Z,100872.79
2022-10-23T08:52:22.732Z,100867.14
2022-10-23T08:55:14.946Z,100866.99
2022-10-23T08:58:32.891Z,100867.81
2022-10-23T09:01:01.833Z,100870.86
2022-10-23T09:03:29.869Z,100869.23
2022-10-23T09:06:05.875Z,100871.40
2022-10-23T09:08:54.109Z,100859.67
2022-10-23T09:11:51.818Z,100866.45
2022-10-23T09:14:47.389Z,100863.79
2022-10-23T09:17:18.474Z,100865.12
2022-10-23T09:19:46.821Z,100866.38
2022-10-23T09:22:14.829Z,100870.33
2022-10-23T09:24:43.701Z,100874.66
2022-10-23T09:27:17.142Z,100879.04
2022-10-23T09:29:54.971Z,100873.34
2022-10-23T09:32:52.613Z,100875.13
2022-10-23T09:35:27.586Z,100880.54
2022-10-23T09:37:56.839Z,100877.70
2022-10-23T09:40:46.789Z,100887.70
2022-10-23T09:43:18.826Z,100886.82
2022-10-23T09:46:07.289Z,100883.18
2022-10-23T09:48:37.289Z,100889.52
2022-10-23T09:51:21.884Z,100894.20
2022-10-23T09:53:57.168Z,100893.52
2022-10-23T09:56:30.408Z,100897.80
2022-10-23T09:59:19.232Z,100896.14
2022-10-23T10:02:26.458Z,100895.67
2022-10-23T10:05:36.427Z,100891.86
2022-10-23T10:08:23.768Z,100887.48
2022-10-23T10:11:18.501Z,100885.13
2022-10-23T10:14:04.955Z,100884.77
2022-10-23T10:16:44.356Z,100887.61
2022-10-23T10:19:48.506Z,100882.05
2022-10-23T10:22:31.795Z,100883.79
2022-10-23T10:25:21.778Z,100886.86
2022-10-23T10:28:29.874Z,100882.68
2022-10-23T10:31:49.352Z,100882.95
2022-10-23T10:34:49.197Z,100881.70
2022-10-23T10:37:28.079Z,100886.88
2022-10-23T10:40:13.208Z,100885.91
2022-10-23T10:43:28.113Z,100885.60
2022-10-23T10:46:08.306Z,100877.71
2022-10-23T10:48:57.018Z,100873.57
2022-10-23T10:51:49.579Z,100866.75
2022-10-23T10:54:37.644Z,100866.92
2022-10-23T10:57:20.691Z,100861.90
2022-10-23T10:59:52.868Z,100859.77
2022-10-23T11:02:48.545Z,100858.40
2022-10-23T11:05:38.142Z,100859.68
2022-10-23T11:08:28.067Z,100858.35
2022-10-23T11:11:04.124Z,100857.16
2022-10-23T11:13:38.333Z,100865.77
2022-10-23T11:16:14.508Z,100864.16
2022-10-23T11:18:46.334Z,100855.52
2022-10-23T11:21:50.623Z,100853.36
2022-10-23T11:25:03.606Z,100850.06
2022-10-23T11:28:03.386Z,100845.95
2022-10-23T11:31:03.420Z,100841.39
2022-10-23T11:33:53.560Z,100830.30
2022-10-23T11:36:42.857Z,100827.09
2022-10-23T11:39:36.796Z,100820.92
2022-10-23T11:42:10.349Z,100818.90
2022-10-23T11:44:46.407Z,100815.75
2022-10-23T11:47:41.668Z,100817.57
2022-10-23T11:50:09.518Z,100817.31
2022-10-23T11:53:13.654Z,100811.16
2022-10-23T11:56:14.532Z,100801.91
2022-10-23T11:58:56.658Z,100802.02
2022-10-23T12:01:45.421Z,100796.05
2022-10-23T12:04:13.782Z,100792.31
2022-10-23T12:06:47.997Z,100787.22
2022-10-23T12:09:41.419Z,100782.25
2022-10-23T12:12:09.353Z,100778.30
2022-10-23T12:14:40.369Z,100774.67
2022-10-23T12:17:40.264Z,100767.15
2022-10-23T12:20:08.316Z,100769.74
2022-10-23T12:23:00.851Z,100768.44
2022-10-23T12:26:09.527Z,100770.70
2022-10-23T12:28:52.789Z,100772.30
2022-10-23T12:32:15.991Z,100770.42
2022-10-23T12:35:47.769Z,100771.57
2022-10-23T12:38:21.944Z,100770.70
2022-10-23T12:41:25.091Z,100766.81
2022-10-23T12:44:02.742Z,100762.61
2022-10-23T12:46:43.451Z,100752.20
2022-10-23T12:49:19.549Z,100747.71
2022-10-23T12:52:00.693Z,100744.64
2022-10-23T12:54:32.721Z,100746.31
2022-10-23T12:57:00.713Z,100746.46
2022-10-23T12:59:41.683Z,100745.65
2022-10-23T13:02:30.842Z,100749.82
2022-10-23T13:05:04.963Z,100743.52
2022-10-23T13:07:39.309Z,100741.42
2022-10-23T13:10:14.277Z,100740.20
2022-10-23T13:13:04.950Z,100737.49
2022-10-23T13:15:42.600Z,100735.54
2022-10-23T13:18:14.479Z,100731.56
2022-10-23T13:20:57.038Z,100726.40
2022-10-23T13:23:34.194Z,100713.39
2022-10-23T13:26:29.934Z,100710.29
2022-10-23T13:28:58.727Z,100702.99
2022-10-23T13:31:35.656Z,100706.56
2022-10-23T13:34:16.274Z,100702.34
2022-10-23T13:37:20.797Z,100701.13
2022-10-23T13:40:10.185Z,100710.02
2022-10-23T13:42:38.250Z,100714.92
2022-10-23T13:45:19.111Z,100714.02
2022-10-23T13:47:47.454Z,100714.95
2022-10-23T13:50:15.926Z,100716.69
2022-10-23T13:52:44.317Z,100713.55
2022-10-23T13:55:26.252Z,100713.98
2022-10-23T13:57:54.340Z,100714.03
2022-10-23T14:00:22.377Z,100711.39
2022-10-23T14:02:50.415Z,100710.67
2022-10-23T14:05:18.450Z,100711.05
2022-10-23T14:07:46.808Z,100705.43
2022-10-23T14:10:15.006Z,100700.48
2022-10-23T14:12:44.681Z,100701.45
2022-10-23T14:15:13.113Z,100700.64
2022-10-23T14:17:41.193Z,100705.64
2022-10-23T14:20:10.613Z,100704.83
2022-10-23T14:22:38.633Z,100696.44
2022-10-23T14:25:06.991Z,100692.30
2022-10-23T14:27:35.064Z,100692.21
2022-10-23T14:30:04.169Z,100691.70
2022-10-23T14:32:32.535Z,100686.58
2022-10-23T14:35:03.833Z,100686.14
2022-10-23T14:37:32.702Z,100680.02
2022-10-23T14:40:00.862Z,100687.89
2022-10-23T14:42:34.147Z,100684.90
2022-10-23T14:45:02.728Z,100682.02
2022-10-23T14:47:31.777Z,100679.74
2022-10-23T14:49:59.888Z,100679.81
2022-10-23T14:52:28.180Z,100675.83
2022-10-23T14:54:56.209Z,100671.96
2022-10-23T14:57:24.414Z,100668.86
2022-10-23T14:59:52.390Z,100664.17
2022-10-23T15:02:20.314Z,100655.50
2022-10-23T15:04:48.363Z,100653.30
2022-10-23T15:07:17.098Z,100654.36
2022-10-23T15:09:45.153Z,100659.52
2022-10-23T15:12:13.198Z,100665.16
2022-10-23T15:14:41.239Z,100661.96
2022-10-23T15:17:14.545Z,100659.31
2022-10-23T15:19:43.959Z,100661.97
2022-10-23T15:22:11.937Z,100660.65
2022-10-23T15:24:39.935Z,100660.13
2022-10-23T15:29:41.007Z,100656.73
2022-10-23T15:32:10.210Z,100659.65
2022-10-23T15:34:39.563Z,100664.15
2022-10-23T15:37:07.529Z,100665.18
2022-10-23T15:39:35.896Z,100668.41
2022-10-23T15:42:06.299Z,100669.51
2022-10-23T15:44:34.556Z,100669.45
2022-10-23T15:47:02.650Z,100665.35
2022-10-23T15:49:30.766Z,100660.46
2022-10-23T15:51:59.107Z,100655.83
2022-10-23T15:54:30.663Z,100658.84
2022-10-23T15:57:02.234Z,100659.84
2022-10-23T15:59:32.232Z,100659.30
2022-10-23T16:02:00.354Z,100650.67
2022-10-23T16:04:28.582Z,100650.61
2022-10-23T16:06:56.929Z,100647.95
2022-10-23T16:09:24.905Z,100644.84
2022-10-23T16:11:52.923Z,100646.50
2022-10-23T16:14:21.078Z,100641.91
2022-10-23T16:16:49.132Z,100647.89
2022-10-23T16:19:17.279Z,100651.78
2022-10-23T16:21:45.617Z,100649.83
2022-10-23T16:24:13.793Z,100647.69
2022-10-23T16:26:41.857Z,100649.59
2022-10-23T16:29:11.305Z,100650.64
2022-10-23T16:31:39.332Z,100656.11
2022-10-23T16:34:07.514Z,100652.45
2022-10-23T16:36:39.027Z,100656.67
2022-10-23T16:39:11.843Z,100654.42
2022-10-23T16:41:58.521Z,100653.81
2022-10-23T16:44:31.477Z,100655.22
2022-10-23T16:47:01.512Z,100652.59
2022-10-23T16:49:31.203Z,100658.89
2022-10-23T16:51:59.236Z,100665.34
2022-10-23T16:54:27.336Z,100665.67
2022-10-23T16:56:55.337Z,100661.17
2022-10-23T16:59:23.283Z,100657.35
2022-10-23T17:01:51.395Z,100657.48
2022-10-23T17:04:19.855Z,100659.60
2022-10-23T17:06:47.897Z,100657.63
2022-10-23T17:09:17.036Z,100656.41
2022-10-23T17:11:45.813Z,100652.14
2022-10-23T17:14:17.817Z,100645.19
2022-10-23T17:16:51.891Z,100647.63
2022-10-23T17:19:45.034Z,100638.84
2022-10-23T17:22:14.854Z,100638.75
2022-10-23T17:24:46.279Z,100643.77
2022-10-23T17:27:17.358Z,100645.23
2022-10-23T17:29:45.550Z,100647.11
2022-10-23T17:32:13.620Z,100645.59
2022-10-23T17:34:41.557Z,100643.64
2022-10-23T17:37:10.225Z,100656.97
2022-10-23T17:39:37.905Z,100654.69
2022-10-23T17:42:05.745Z,100649.36
2022-10-23T17:44:33.472Z,100649.30
2022-10-23T17:47:01.180Z,100646.80
2022-10-23T17:49:28.881Z,100650.25
2022-10-23T17:51:58.100Z,100644.58
2022-10-23T17:54:27.529Z,100650.30
2022-10-23T17:56:56.405Z,100651.62
2022-10-23T17:59:24.333Z,100650.33
2022-10-23T18:01:52.151Z,100646.47
2022-10-23T18:04:20.498Z,100642.36
2022-10-23T18:06:53.497Z,100637.98
2022-10-23T18:09:22.982Z,100637.90
2022-10-23T18:11:51.690Z,100630.11
2022-10-23T18:14:21.440Z,100624.50
2022-10-23T18:16:50.789Z,100621.81
2022-10-23T18:19:19.228Z,100614.31
2022-10-23T18:21:48.707Z,100609.23
2022-10-23T18:24:18.152Z,100602.48
2022-10-23T18:26:48.258Z,100597.35
2022-10-23T18:29:17.488Z,100590.52
2022-10-23T18:31:47.974Z,100595.85
2022-10-23T18:34:24.654Z,100603.98
2022-10-23T18:36:54.530Z,100595.36
2022-10-23T18:39:24.962Z,100588.16
2022-10-23T18:41:56.780Z,100584.92
2022-10-23T18:44:28.869Z,100580.54
2022-10-23T18:46:59.555Z,100576.48
2022-10-23T18:49:27.805Z,100571.48
2022-10-23T18:51:55.841Z,100563.77
2022-10-23T18:54:23.762Z,100558.18
2022-10-23T18:56:51.430Z,100555.95
2022-10-23T18:59:20.924Z,100552.80
2022-10-23T19:01:49.539Z,100554.13
2022-10-23T19:04:18.385Z,100550.45
2022-10-23T19:06:47.830Z,100549.36
2022-10-23T19:09:16.515Z,100542.41
2022-10-23T19:11:45.477Z,100539.77
2022-10-23T19:14:13.395Z,100534.90
2022-10-23T19:17:11.551Z,100533.77
2022-10-23T19:19:48.479Z,100536.69
2022-10-23T19:22:17.594Z,100528.71
2022-10-23T19:24:57.881Z,100528.05
2022-10-23T19:27:26.943Z,100523.38
2022-10-23T19:29:56.088Z,100527.56
2022-10-23T19:32:23.857Z,100533.16
2022-10-23T19:34:51.681Z,100536.71
2022-10-23T19:37:19.427Z,100541.92
2022-10-23T19:39:47.248Z,100539.16
2022-10-23T19:42:14.975Z,100538.20
2022-10-23T19:44:42.740Z,100533.25
2022-10-23T19:47:10.423Z,100531.69
2022-10-23T19:49:38.297Z,100534.96
2022-10-23T19:52:06.083Z,100537.56
2022-10-23T19:54:35.810Z,100538.14
2022-10-23T19:57:03.910Z,100534.70
2022-10-23T19:59:31.700Z,100531.23
2022-10-23T20:01:59.693Z,100527.19
2022-10-23T20:04:28.912Z,100527.94
2022-10-23T20:06:57.569Z,100532.11
2022-10-23T20:09:25.541Z,100530.74
2022-10-23T20:11:53.666Z,100528.27
2022-10-23T20:14:21.377Z,100531.45
2022-10-23T20:16:53.428Z,100535.50
2022-10-23T20:19:23.810Z,100524.45
2022-10-23T20:21:51.657Z,100525.43
2022-10-23T20:24:20.908Z,100519.84
2022-10-23T20:26:52.921Z,100517.21
2022-10-23T20:29:22.167Z,100518.95
2022-10-23T20:31:50.610Z,100524.08
2022-10-23T20:34:19.188Z,100526.78
2022-10-23T20:36:49.885Z,100522.54
2022-10-23T20:39:25.641Z,100523.92
2022-10-23T20:41:55.252Z,100517.17
2022-10-23T20:44:23.773Z,100512.50
2022-10-23T20:46:51.903Z,100503.64
2022-10-23T20:49:20.213Z,100492.10
2022-10-23T20:51:56.027Z,100483.29
2022-10-23T20:54:26.786Z,100482.63
2022-10-23T20:56:56.926Z,100481.39
2022-10-23T20:59:25.231Z,100481.83
2022-10-23T21:01:55.346Z,100476.15
2022-10-23T21:04:27.495Z,100476.30
2022-10-23T21:07:09.494Z,100474.39
2022-10-23T21:09:39.648Z,100474.42
2022-10-23T21:12:08.693Z,100469.38
2022-10-23T21:14:36.660Z,100472.31
2022-10-23T21:17:04.768Z,100478.15
2022-10-23T21:19:32.480Z,100471.94
2022-10-23T21:22:00.256Z,100473.20
2022-10-23T21:24:27.983Z,100476.80
2022-10-23T21:26:55.626Z,100474.55
2022-10-23T21:29:23.357Z,100469.75
2022-10-23T21:31:57.368Z,100469.85
2022-10-23T21:34:26.530Z,100464.39
2022-10-23T21:39:44.312Z,100463.60
2022-10-23T21:42:13.987Z,100464.79
2022-10-23T21:44:41.924Z,100469.16
2022-10-23T21:47:10.015Z,100464.87
2022-10-23T21:49:37.965Z,100461.95
2022-10-23T21:52:06.080Z,100461.09
2022-10-23T21:54:33.965Z,100457.38
2022-10-23T21:57:03.435Z,100459.07
2022-10-23T21:59:34.829Z,100456.09
2022-10-23T22:02:04.663Z,100458.11
2022-10-23T22:04:32.752Z,100453.78
2022-10-23T22:07:02.808Z,100454.19
2022-10-23T22:09:32.873Z,100452.23
2022-10-23T22:12:01.100Z,100448.03
2022-10-23T22:14:29.049Z,100453.25
2022-10-23T22:16:57.034Z,100451.52
2022-10-23T22:19:25.489Z,100437.85
2022-10-23T22:21:54.366Z,100423.98
2022-10-23T22:24:22.436Z,100421.63
2022-10-23T22:26:54.565Z,100423.58
2022-10-23T22:29:26.539Z,100431.23
2022-10-23T22:31:54.822Z,100432.72
2022-10-23T22:37:17.471Z,100432.39
2022-10-23T22:39:45.387Z,100438.27
2022-10-23T22:42:13.218Z,100440.50
2022-10-23T22:44:40.977Z,100437.70
2022-10-23T22:47:08.863Z,100435.30
2022-10-23T22:49:37.590Z,100433.88
2022-10-23T22:52:05.399Z,100438.02
2022-10-23T22:54:33.353Z,100430.05
2022-10-23T22:57:01.203Z,100421.52
2022-10-23T22:59:29.062Z,100409.88
2022-10-23T23:01:56.905Z,100401.46
2022-10-23T23:04:40.041Z,100398.12
2022-10-23T23:07:11.580Z,100395.18
2022-10-23T23:09:42.509Z,100399.88
2022-10-23T23:12:13.604Z,100402.70
2022-10-23T23:14:42.747Z,100408.40
2022-10-23T23:17:11.658Z,100411.77
2022-10-23T23:19:39.927Z,100410.22
2022-10-23T23:22:07.926Z,100408.02
2022-10-23T23:24:35.753Z,100407.38
2022-10-23T23:27:03.812Z,100402.78
2022-10-23T23:29:32.210Z,100406.61
2022-10-23T23:32:00.509Z,100410.49
2022-10-23T23:34:29.194Z,100408.98
2022-10-23T23:36:57.269Z,100407.94
2022-10-23T23:39:26.032Z,100396.31
2022-10-23T23:41:54.248Z,100392.58
2022-10-23T23:44:22.035Z,100385.09
2022-10-23T23:46:49.924Z,100380.41
2022-10-23T23:49:17.835Z,100376.18
2022-10-23T23:51:45.646Z,100366.10
2022-10-23T23:54:13.502Z,100373.70
2022-10-23T23:56:41.396Z,100380.68
2022-10-23T23:59:09.173Z,100384.16
